createdAt,value
2022-08-03T00:01:49.422Z,100551.53
2022-08-03T00:03:52.322Z,100557.81
2022-08-03T00:06:04.542Z,100549.16
2022-08-03T00:08:07.948Z,100549.41
2022-08-03T00:10:12.206Z,100548.56
2022-08-03T00:12:15.358Z,100556.66
2022-08-03T00:14:18.271Z,100558.63
2022-08-03T00:16:22.436Z,100552.44
2022-08-03T00:18:26.265Z,100552.44
2022-08-03T00:20:29.166Z,100550.56
2022-08-03T00:22:32.032Z,100556.00
2022-08-03T00:24:36.187Z,100549.97
2022-08-03T00:26:39.054Z,100558.16
2022-08-03T00:28:42.061Z,100557.53
2022-08-03T00:30:44.961Z,100554.06
2022-08-03T00:32:49.190Z,100551.53
2022-08-03T00:34:57.927Z,100546.28
2022-08-03T00:37:01.976Z,100552.56
2022-08-03T00:39:05.140Z,100549.78
2022-08-03T00:41:07.957Z,100549.69
2022-08-03T00:43:11.507Z,100550.38
2022-08-03T00:45:14.374Z,100545.16
2022-08-03T00:47:17.301Z,100547.75
2022-08-03T00:49:21.602Z,100542.50
2022-08-03T00:51:25.025Z,100545.75
2022-08-03T00:53:28.547Z,100549.31
2022-08-03T00:55:31.785Z,100545.75
2022-08-03T00:57:35.621Z,100546.59
2022-08-03T00:59:39.585Z,100543.03
2022-08-03T01:01:42.493Z,100543.94
2022-08-03T01:03:45.408Z,100543.16
2022-08-03T01:05:56.914Z,100544.97
2022-08-03T01:08:06.521Z,100539.72
2022-08-03T01:10:18.280Z,100537.84
2022-08-03T01:12:27.221Z,100536.09
2022-08-03T01:14:39.415Z,100536.09
2022-08-03T01:16:49.225Z,100535.34
2022-08-03T01:18:59.363Z,100532.78
2022-08-03T01:21:08.613Z,100528.31
2022-08-03T01:23:47.112Z,100535.44
2022-08-03T01:26:06.954Z,100528.66
2022-08-03T01:28:29.961Z,100529.50
2022-08-03T01:30:37.885Z,100526.91
2022-08-03T01:32:58.850Z,100528.59
2022-08-03T01:35:07.429Z,100528.75
2022-08-03T01:37:13.937Z,100526.00
2022-08-03T01:39:18.162Z,100526.91
2022-08-03T01:41:22.124Z,100529.22
2022-08-03T01:44:27.143Z,100528.97
2022-08-03T01:45:55.412Z,100523.53
2022-08-03T01:47:59.925Z,100521.66
2022-08-03T01:50:04.706Z,100523.34
2022-08-03T01:52:08.807Z,100523.34
2022-08-03T01:54:14.525Z,100522.41
2022-08-03T01:56:20.114Z,100520.66
2022-08-03T01:58:26.039Z,100523.25
2022-08-03T02:00:29.272Z,100526.81
2022-08-03T02:02:34.927Z,100526.88
2022-08-03T02:04:40.093Z,100518.13
2022-08-03T02:07:01.178Z,100519.25
2022-08-03T02:09:07.449Z,100512.38
2022-08-03T02:11:10.150Z,100520.94
2022-08-03T02:13:15.050Z,100514.63
2022-08-03T02:15:19.745Z,100517.91
2022-08-03T02:17:39.410Z,100516.16
2022-08-03T02:19:46.261Z,100516.09
2022-08-03T02:21:57.156Z,100517.06
2022-08-03T02:24:05.275Z,100517.84
2022-08-03T02:26:12.787Z,100527.53
2022-08-03T02:28:19.250Z,100525.00
2022-08-03T02:30:23.554Z,100518.03
2022-08-03T02:32:31.621Z,100520.63
2022-08-03T02:34:36.865Z,100517.16
2022-08-03T02:36:43.495Z,100516.38
2022-08-03T02:38:50.772Z,100516.50
2022-08-03T02:40:56.864Z,100519.38
2022-08-03T02:43:03.458Z,100517.63
2022-08-03T02:45:09.311Z,100514.19
2022-08-03T02:47:15.505Z,100513.41
2022-08-03T02:49:40.729Z,100517.06
2022-08-03T02:51:45.915Z,100519.69
2022-08-03T02:53:49.690Z,100511.84
2022-08-03T02:55:54.689Z,100513.69
2022-08-03T02:58:01.482Z,100517.28
2022-08-03T03:00:06.760Z,100512.03
2022-08-03T03:02:10.959Z,100515.00
2022-08-03T03:04:15.044Z,100512.47
2022-08-03T03:06:18.965Z,100516.06
2022-08-03T03:08:25.973Z,100513.88
2022-08-03T03:10:30.508Z,100517.22
2022-08-03T03:12:36.851Z,100513.63
2022-08-03T03:14:40.742Z,100516.31
2022-08-03T03:16:45.504Z,100509.22
2022-08-03T03:18:55.877Z,100512.75
2022-08-03T03:21:00.169Z,100508.38
2022-08-03T03:23:04.539Z,100516.50
2022-08-03T03:25:09.170Z,100518.81
2022-08-03T03:27:16.697Z,100515.13
2022-08-03T03:29:20.061Z,100508.03
2022-08-03T03:31:23.533Z,100514.28
2022-08-03T03:33:28.410Z,100511.78
2022-08-03T03:35:38.922Z,100514.53
2022-08-03T03:37:42.317Z,100512.09
2022-08-03T03:39:45.223Z,100517.28
2022-08-03T03:41:50.084Z,100518.09
2022-08-03T03:43:53.011Z,100521.59
2022-08-03T03:45:56.590Z,100519.91
2022-08-03T03:48:00.961Z,100523.53
2022-08-03T03:50:04.190Z,100519.97
2022-08-03T03:52:07.623Z,100521.63
2022-08-03T03:54:10.477Z,100523.47
2022-08-03T03:56:13.298Z,100519.91
2022-08-03T03:58:17.475Z,100524.28
2022-08-03T04:00:20.773Z,100514.69
2022-08-03T04:02:23.764Z,100516.44
2022-08-03T04:04:44.277Z,100511.88
2022-08-03T04:07:05.027Z,100509.34
2022-08-03T04:09:28.209Z,100514.72
2022-08-03T04:11:37.537Z,100513.78
2022-08-03T04:13:45.144Z,100520.03
2022-08-03T04:15:49.765Z,100524.44
2022-08-03T04:17:56.971Z,100526.16
2022-08-03T04:20:04.047Z,100522.66
2022-08-03T04:22:10.817Z,100522.66
2022-08-03T04:24:16.033Z,100531.50
2022-08-03T04:26:22.496Z,100525.44
2022-08-03T04:28:31.276Z,100526.47
2022-08-03T04:30:38.661Z,100532.66
2022-08-03T04:32:45.968Z,100530.03
2022-08-03T04:34:49.343Z,100534.41
2022-08-03T04:36:58.182Z,100531.75
2022-08-03T04:39:04.583Z,100535.13
2022-08-03T04:41:09.024Z,100532.41
2022-08-03T04:43:13.780Z,100540.66
2022-08-03T04:45:20.219Z,100536.84
2022-08-03T04:47:24.803Z,100536.59
2022-08-03T04:49:28.920Z,100539.94
2022-08-03T04:51:34.713Z,100534.66
2022-08-03T04:53:38.349Z,100541.59
2022-08-03T04:55:41.194Z,100528.47
2022-08-03T04:57:43.970Z,100540.81
2022-08-03T04:59:49.147Z,100537.25
2022-08-03T05:01:52.236Z,100539.91
2022-08-03T05:03:56.476Z,100536.50
2022-08-03T05:06:01.619Z,100544.44
2022-08-03T05:08:05.148Z,100540.75
2022-08-03T05:10:16.069Z,100537.06
2022-08-03T05:12:19.587Z,100550.13
2022-08-03T05:14:28.198Z,100541.25
2022-08-03T05:16:31.258Z,100540.28
2022-08-03T05:18:34.221Z,100542.84
2022-08-03T05:20:38.427Z,100536.47
2022-08-03T05:22:41.302Z,100540.84
2022-08-03T05:24:44.133Z,100539.84
2022-08-03T05:26:46.960Z,100546.78
2022-08-03T05:28:50.631Z,100539.56
2022-08-03T05:30:54.072Z,100541.06
2022-08-03T05:32:56.881Z,100546.22
2022-08-03T05:34:59.717Z,100546.97
2022-08-03T05:37:23.872Z,100545.06
2022-08-03T05:39:26.724Z,100547.59
2022-08-03T05:41:37.008Z,100543.97
2022-08-03T05:43:40.461Z,100551.75
2022-08-03T05:45:43.294Z,100554.25
2022-08-03T05:47:46.159Z,100554.16
2022-08-03T05:49:49.082Z,100557.09
2022-08-03T05:52:00.324Z,100549.06
2022-08-03T05:54:16.918Z,100552.72
2022-08-03T05:56:23.431Z,100550.44
2022-08-03T05:58:26.338Z,100548.19
2022-08-03T06:00:32.877Z,100553.94
2022-08-03T06:02:36.099Z,100549.31
2022-08-03T06:04:39.001Z,100557.09
2022-08-03T06:06:42.103Z,100549.03
2022-08-03T06:08:48.670Z,100554.09
2022-08-03T06:10:52.891Z,100558.34
2022-08-03T06:12:55.712Z,100554.59
2022-08-03T06:14:58.681Z,100551.78
2022-08-03T06:17:01.518Z,100548.84
2022-08-03T06:19:04.424Z,100551.19
2022-08-03T06:21:14.266Z,100552.59
2022-08-03T06:23:19.401Z,100554.09
2022-08-03T06:25:22.868Z,100548.50
2022-08-03T06:27:36.446Z,100549.16
2022-08-03T06:29:40.297Z,100545.53
2022-08-03T06:31:43.095Z,100553.22
2022-08-03T06:34:30.626Z,100554.78
2022-08-03T06:36:09.011Z,100550.34
2022-08-03T06:38:14.944Z,100550.34
2022-08-03T06:40:24.436Z,100552.59
2022-08-03T06:42:28.848Z,100551.69
2022-08-03T06:44:31.668Z,100556.81
2022-08-03T06:46:34.559Z,100553.75
2022-08-03T06:48:37.437Z,100548.97
2022-08-03T06:50:42.649Z,100550.59
2022-08-03T06:52:45.648Z,100549.44
2022-08-03T06:54:48.561Z,100556.91
2022-08-03T06:56:51.507Z,100554.78
2022-08-03T06:58:55.671Z,100554.44
2022-08-03T07:00:58.566Z,100560.31
2022-08-03T07:03:01.472Z,100564.31
2022-08-03T07:05:04.630Z,100558.78
2022-08-03T07:07:07.573Z,100559.34
2022-08-03T07:09:10.437Z,100562.63
2022-08-03T07:11:13.295Z,100567.47
2022-08-03T07:13:16.177Z,100563.59
2022-08-03T07:15:55.391Z,100568.38
2022-08-03T07:17:43.290Z,100570.50
2022-08-03T07:19:46.194Z,100565.41
2022-08-03T07:21:49.046Z,100571.44
2022-08-03T07:23:51.863Z,100571.03
2022-08-03T07:25:54.745Z,100569.06
2022-08-03T07:27:57.587Z,100575.91
2022-08-03T07:30:01.170Z,100567.25
2022-08-03T07:32:05.985Z,100578.13
2022-08-03T07:34:08.972Z,100572.53
2022-08-03T07:36:11.809Z,100574.53
2022-08-03T07:38:14.729Z,100565.91
2022-08-03T07:40:17.973Z,100567.63
2022-08-03T07:42:20.829Z,100566.63
2022-08-03T07:44:23.726Z,100571.09
2022-08-03T07:46:26.799Z,100567.31
2022-08-03T07:48:31.088Z,100556.41
2022-08-03T07:50:33.759Z,100575.03
2022-08-03T07:52:52.801Z,100571.81
2022-08-03T07:54:56.080Z,100560.13
2022-08-03T07:56:59.050Z,100570.50
2022-08-03T07:59:02.892Z,100570.50
2022-08-03T08:01:05.792Z,100561.25
2022-08-03T08:03:08.816Z,100562.44
2022-08-03T08:05:13.711Z,100554.78
2022-08-03T08:07:16.606Z,100562.16
2022-08-03T08:09:21.257Z,100559.72
2022-08-03T08:11:24.076Z,100558.22
2022-08-03T08:13:27.138Z,100551.72
2022-08-03T08:15:30.178Z,100552.59
2022-08-03T08:17:41.699Z,100554.09
2022-08-03T08:19:51.761Z,100555.41
2022-08-03T08:22:02.572Z,100544.38
2022-08-03T08:24:56.931Z,100550.16
2022-08-03T08:26:59.894Z,100546.38
2022-08-03T08:29:02.735Z,100551.25
2022-08-03T08:31:05.782Z,100539.97
2022-08-03T08:33:12.851Z,100547.66
2022-08-03T08:35:26.931Z,100545.47
2022-08-03T08:37:31.183Z,100539.78
2022-08-03T08:39:33.866Z,100543.66
2022-08-03T08:41:36.836Z,100541.69
2022-08-03T08:43:39.724Z,100546.34
2022-08-03T08:45:43.380Z,100540.47
2022-08-03T08:47:51.230Z,100540.25
2022-08-03T08:50:09.292Z,100541.84
2022-08-03T08:52:25.106Z,100535.56
2022-08-03T08:54:34.270Z,100532.53
2022-08-03T08:56:38.517Z,100535.75
2022-08-03T08:58:43.152Z,100539.44
2022-08-03T09:00:48.299Z,100531.69
2022-08-03T09:02:51.491Z,100529.13
2022-08-03T09:04:54.452Z,100537.53
2022-08-03T09:07:18.877Z,100537.53
2022-08-03T09:10:05.917Z,100530.78
2022-08-03T09:11:57.744Z,100532.56
2022-08-03T09:14:08.246Z,100536.69
2022-08-03T09:16:16.634Z,100540.53
2022-08-03T09:18:32.591Z,100527.22
2022-08-03T09:20:36.855Z,100528.00
2022-08-03T09:22:54.168Z,100529.75
2022-08-03T09:25:21.511Z,100522.88
2022-08-03T09:27:23.744Z,100531.84
2022-08-03T09:29:26.748Z,100535.84
2022-08-03T09:31:34.575Z,100532.91
2022-08-03T09:33:48.410Z,100526.97
2022-08-03T09:35:54.130Z,100525.91
2022-08-03T09:38:14.616Z,100528.91
2022-08-03T09:40:36.167Z,100522.09
2022-08-03T09:42:57.544Z,100526.13
2022-08-03T09:45:00.490Z,100526.31
2022-08-03T09:47:03.325Z,100522.94
2022-08-03T09:49:12.990Z,100521.34
2022-08-03T09:51:32.925Z,100515.13
2022-08-03T09:53:58.703Z,100512.16
2022-08-03T09:56:36.163Z,100517.59
2022-08-03T09:58:29.843Z,100523.19
2022-08-03T10:00:32.782Z,100513.19
2022-08-03T10:02:35.667Z,100520.06
2022-08-03T10:04:48.264Z,100512.50
2022-08-03T10:07:05.787Z,100510.91
2022-08-03T10:09:11.003Z,100510.81
2022-08-03T10:11:13.854Z,100505.44
2022-08-03T10:13:18.362Z,100504.13
2022-08-03T10:16:22.134Z,100508.31
2022-08-03T10:17:45.759Z,100502.53
2022-08-03T10:19:49.404Z,100500.50
2022-08-03T10:21:56.697Z,100494.94
2022-08-03T10:24:02.895Z,100489.84
2022-08-03T10:26:08.739Z,100492.44
2022-08-03T10:28:15.982Z,100496.97
2022-08-03T10:30:19.027Z,100493.81
2022-08-03T10:32:35.193Z,100485.44
2022-08-03T10:34:44.612Z,100487.03
2022-08-03T10:36:50.005Z,100484.28
2022-08-03T10:38:54.223Z,100484.38
2022-08-03T10:40:59.193Z,100480.84
2022-08-03T10:43:09.000Z,100476.75
2022-08-03T10:45:16.402Z,100474.38
2022-08-03T10:47:19.853Z,100474.25
2022-08-03T10:49:34.453Z,100466.63
2022-08-03T10:51:38.951Z,100467.22
2022-08-03T10:53:54.185Z,100462.56
2022-08-03T10:56:18.184Z,100453.38
2022-08-03T10:58:57.158Z,100462.56
2022-08-03T11:01:00.942Z,100456.28
2022-08-03T11:03:09.539Z,100444.59
2022-08-03T11:05:29.614Z,100450.19
2022-08-03T11:07:32.458Z,100454.97
2022-08-03T11:09:42.778Z,100450.38
2022-08-03T11:11:47.567Z,100447.69
2022-08-03T11:13:58.889Z,100444.34
2022-08-03T11:16:07.089Z,100444.00
2022-08-03T11:18:12.575Z,100448.41
2022-08-03T11:20:15.662Z,100439.53
2022-08-03T11:22:21.206Z,100436.03
2022-08-03T11:24:58.374Z,100443.25
2022-08-03T11:27:19.492Z,100441.28
2022-08-03T11:29:29.780Z,100436.25
2022-08-03T11:31:50.291Z,100434.81
2022-08-03T11:34:05.547Z,100429.19
2022-08-03T11:36:08.232Z,100424.28
2022-08-03T11:38:15.296Z,100426.34
2022-08-03T11:40:37.524Z,100433.53
2022-08-03T11:42:50.519Z,100422.78
2022-08-03T11:44:55.066Z,100423.16
2022-08-03T11:46:58.943Z,100431.88
2022-08-03T11:49:10.375Z,100421.59
2022-08-03T11:51:22.168Z,100430.56
2022-08-03T11:53:26.433Z,100421.66
2022-08-03T11:55:32.098Z,100428.22
2022-08-03T11:59:19.543Z,100424.44
2022-08-03T11:59:59.759Z,100411.59
2022-08-03T12:02:08.018Z,100406.47
2022-08-03T12:04:11.678Z,100406.84
2022-08-03T12:06:16.788Z,100398.84
2022-08-03T12:08:31.206Z,100400.56
2022-08-03T12:10:37.019Z,100403.28
2022-08-03T12:12:46.656Z,100397.28
2022-08-03T12:14:52.533Z,100403.38
2022-08-03T12:16:55.556Z,100398.31
2022-08-03T12:18:59.687Z,100398.47
2022-08-03T12:21:08.087Z,100394.91
2022-08-03T12:23:11.455Z,100392.81
2022-08-03T12:25:39.096Z,100393.31
2022-08-03T12:27:43.885Z,100397.94
2022-08-03T12:29:57.222Z,100390.47
2022-08-03T12:32:01.748Z,100387.16
2022-08-03T12:34:07.064Z,100382.81
2022-08-03T12:36:11.973Z,100393.91
2022-08-03T12:38:15.012Z,100386.28
2022-08-03T12:40:28.362Z,100394.34
2022-08-03T12:42:31.532Z,100391.84
2022-08-03T12:44:37.137Z,100388.19
2022-08-03T12:46:46.959Z,100383.28
2022-08-03T12:49:01.302Z,100380.88
2022-08-03T12:51:12.919Z,100377.19
2022-08-03T12:53:29.893Z,100374.78
2022-08-03T12:55:40.104Z,100371.75
2022-08-03T12:57:59.560Z,100372.84
2022-08-03T13:00:21.500Z,100362.47
2022-08-03T13:02:32.224Z,100371.25
2022-08-03T13:04:37.097Z,100364.22
2022-08-03T13:06:40.020Z,100367.75
2022-08-03T13:08:44.249Z,100362.25
2022-08-03T13:10:47.199Z,100357.28
2022-08-03T13:12:51.335Z,100363.09
2022-08-03T13:14:57.057Z,100359.41
2022-08-03T13:17:01.412Z,100363.81
2022-08-03T13:19:04.410Z,100360.31
2022-08-03T13:21:07.404Z,100358.41
2022-08-03T13:23:12.940Z,100348.41
2022-08-03T13:25:25.303Z,100348.28
2022-08-03T13:28:12.372Z,100350.84
2022-08-03T13:29:52.868Z,100343.44
2022-08-03T13:31:55.718Z,100342.28
2022-08-03T13:33:59.948Z,100337.75
2022-08-03T13:36:02.787Z,100345.03
2022-08-03T13:38:05.723Z,100341.72
2022-08-03T13:40:11.576Z,100343.81
2022-08-03T13:42:14.742Z,100339.13
2022-08-03T13:44:29.191Z,100340.34
2022-08-03T13:46:32.728Z,100338.56
2022-08-03T13:48:37.070Z,100329.41
2022-08-03T13:50:43.166Z,100335.31
2022-08-03T13:52:46.335Z,100328.94
2022-08-03T13:54:49.174Z,100334.22
2022-08-03T13:56:55.826Z,100328.97
2022-08-03T13:59:01.808Z,100329.53
2022-08-03T14:01:04.686Z,100318.38
2022-08-03T14:03:15.462Z,100320.56
2022-08-03T14:05:18.497Z,100323.38
2022-08-03T14:07:22.684Z,100317.88
2022-08-03T14:09:25.610Z,100318.66
2022-08-03T14:12:08.175Z,100317.94
2022-08-03T14:13:52.004Z,100306.72
2022-08-03T14:15:55.590Z,100308.81
2022-08-03T14:17:59.049Z,100305.53
2022-08-03T14:20:03.075Z,100303.25
2022-08-03T14:22:26.317Z,100300.66
2022-08-03T14:24:31.471Z,100297.41
2022-08-03T14:26:34.376Z,100295.75
2022-08-03T14:28:37.679Z,100292.28
2022-08-03T14:30:40.479Z,100291.72
2022-08-03T14:32:49.387Z,100293.72
2022-08-03T14:34:52.215Z,100279.50
2022-08-03T14:36:55.047Z,100280.09
2022-08-03T14:39:01.552Z,100280.94
2022-08-03T14:41:04.608Z,100287.19
2022-08-03T14:43:07.546Z,100280.75
2022-08-03T14:45:20.166Z,100278.97
2022-08-03T14:47:23.502Z,100285.19
2022-08-03T14:50:32.314Z,100279.34
2022-08-03T14:51:51.646Z,100280.66
2022-08-03T14:53:56.762Z,100280.19
2022-08-03T14:56:01.036Z,100282.06
2022-08-03T14:58:05.705Z,100272.56
2022-08-03T15:00:22.807Z,100274.66
2022-08-03T15:02:25.943Z,100275.25
2022-08-03T15:04:28.815Z,100267.72
2022-08-03T15:06:31.622Z,100270.41
2022-08-03T15:08:34.476Z,100258.28
2022-08-03T15:10:44.133Z,100262.41
2022-08-03T15:12:52.029Z,100255.72
2022-08-03T15:14:57.404Z,100260.22
2022-08-03T15:17:00.624Z,100252.56
2022-08-03T15:19:04.951Z,100251.28
2022-08-03T15:21:47.314Z,100250.84
2022-08-03T15:23:49.514Z,100247.41
2022-08-03T15:26:32.314Z,100247.38
2022-08-03T15:28:20.349Z,100245.56
2022-08-03T15:30:23.229Z,100244.31
2022-08-03T15:32:26.100Z,100237.03
2022-08-03T15:34:29.263Z,100234.34
2022-08-03T15:36:33.023Z,100233.91
2022-08-03T15:38:35.689Z,100232.19
2022-08-03T15:40:38.673Z,100229.34
2022-08-03T15:42:41.484Z,100226.50
2022-08-03T15:44:45.747Z,100223.38
2022-08-03T15:46:48.721Z,100215.66
2022-08-03T15:48:51.820Z,100216.81
2022-08-03T15:50:55.143Z,100221.81
2022-08-03T15:52:58.079Z,100220.25
2022-08-03T15:55:00.928Z,100217.69
2022-08-03T15:57:03.862Z,100214.09
2022-08-03T15:59:13.449Z,100210.28
2022-08-03T16:01:20.291Z,100215.63
2022-08-03T16:03:23.432Z,100211.50
2022-08-03T16:05:26.260Z,100201.25
2022-08-03T16:08:02.568Z,100205.19
2022-08-03T16:10:07.859Z,100204.41
2022-08-03T16:12:15.704Z,100202.88
2022-08-03T16:14:32.007Z,100196.97
2022-08-03T16:16:40.966Z,100202.06
2022-08-03T16:18:43.948Z,100189.66
2022-08-03T16:20:46.797Z,100194.63
2022-08-03T16:22:50.336Z,100204.56
2022-08-03T16:24:54.479Z,100193.59
2022-08-03T16:26:57.832Z,100193.34
2022-08-03T16:29:03.540Z,100199.66
2022-08-03T16:31:09.013Z,100194.88
2022-08-03T16:33:16.992Z,100189.47
2022-08-03T16:35:21.398Z,100192.47
2022-08-03T16:37:38.161Z,100187.78
2022-08-03T16:39:41.848Z,100188.91
2022-08-03T16:41:54.116Z,100188.50
2022-08-03T16:44:08.060Z,100188.19
2022-08-03T16:46:12.963Z,100189.75
2022-08-03T16:48:18.242Z,100188.47
2022-08-03T16:50:21.255Z,100182.50
2022-08-03T16:52:24.535Z,100185.75
2022-08-03T16:54:27.979Z,100187.16
2022-08-03T16:56:32.162Z,100183.97
2022-08-03T16:58:42.100Z,100185.97
2022-08-03T17:00:46.396Z,100183.81
2022-08-03T17:02:53.169Z,100186.66
2022-08-03T17:04:59.011Z,100184.06
2022-08-03T17:07:04.539Z,100182.06
2022-08-03T17:09:10.251Z,100185.03
2022-08-03T17:11:13.368Z,100185.75
2022-08-03T17:13:22.646Z,100180.16
2022-08-03T17:15:38.019Z,100179.72
2022-08-03T17:18:02.033Z,100181.69
2022-08-03T17:20:11.222Z,100180.34
2022-08-03T17:22:18.568Z,100185.19
2022-08-03T17:24:28.243Z,100178.34
2022-08-03T17:26:35.008Z,100179.59
2022-08-03T17:28:50.238Z,100174.47
2022-08-03T17:31:23.059Z,100182.84
2022-08-03T17:33:35.647Z,100176.41
2022-08-03T17:35:40.161Z,100182.63
2022-08-03T17:37:57.454Z,100181.09
2022-08-03T17:40:03.728Z,100179.22
2022-08-03T17:46:56.329Z,100177.28
2022-08-03T17:49:02.017Z,100178.38
2022-08-03T17:51:15.397Z,100182.28
2022-08-03T17:53:29.115Z,100175.59
2022-08-03T17:55:54.957Z,100178.81
2022-08-03T17:58:03.701Z,100180.31
2022-08-03T18:00:22.864Z,100184.25
2022-08-03T18:02:54.753Z,100176.31
2022-08-03T18:05:16.319Z,100183.09
2022-08-03T18:07:24.088Z,100190.56
2022-08-03T18:10:04.170Z,100189.22
2022-08-03T18:12:17.719Z,100195.97
2022-08-03T18:14:28.429Z,100191.09
2022-08-03T18:16:37.753Z,100199.66
2022-08-03T18:18:43.337Z,100183.91
2022-08-03T18:20:46.258Z,100186.84
2022-08-03T18:22:53.320Z,100181.00
2022-08-03T18:24:56.793Z,100186.88
2022-08-03T18:27:02.297Z,100192.66
2022-08-03T18:29:06.069Z,100182.38
2022-08-03T18:31:33.221Z,100185.56
2022-08-03T18:34:17.898Z,100188.03
2022-08-03T18:36:04.177Z,100192.19
2022-08-03T18:38:10.427Z,100192.19
2022-08-03T18:40:13.491Z,100186.41
2022-08-03T18:42:26.248Z,100187.63
2022-08-03T18:44:46.476Z,100182.88
2022-08-03T18:47:16.475Z,100189.09
2022-08-03T18:49:30.268Z,100188.25
2022-08-03T18:51:43.319Z,100196.09
2022-08-03T18:54:02.754Z,100192.00
2022-08-03T18:56:14.493Z,100185.41
2022-08-03T18:58:26.355Z,100191.75
2022-08-03T19:00:54.317Z,100193.06
2022-08-03T19:02:58.825Z,100190.38
2022-08-03T19:05:07.192Z,100191.84
2022-08-03T19:07:11.152Z,100195.84
2022-08-03T19:09:23.849Z,100195.97
2022-08-03T19:12:14.215Z,100203.25
2022-08-03T19:14:02.100Z,100202.00
2022-08-03T19:16:08.744Z,100205.16
2022-08-03T19:18:16.374Z,100199.47
2022-08-03T19:20:21.701Z,100207.28
2022-08-03T19:22:27.145Z,100206.88
2022-08-03T19:24:32.044Z,100201.00
2022-08-03T19:26:37.863Z,100209.53
2022-08-03T19:28:42.543Z,100218.88
2022-08-03T19:30:53.731Z,100215.44
2022-08-03T19:32:56.999Z,100216.63
2022-08-03T19:35:01.641Z,100219.53
2022-08-03T19:37:04.945Z,100217.19
2022-08-03T19:39:09.938Z,100213.91
2022-08-03T19:41:15.893Z,100224.81
2022-08-03T19:43:23.391Z,100221.38
2022-08-03T19:46:05.473Z,100220.88
2022-08-03T19:47:54.742Z,100213.00
2022-08-03T19:50:06.201Z,100220.31
2022-08-03T19:57:16.032Z,100214.81
2022-08-03T19:59:20.888Z,100223.16
2022-08-03T20:01:24.137Z,100218.03
2022-08-03T20:03:42.946Z,100223.59
2022-08-03T20:05:52.309Z,100217.63
2022-08-03T20:08:00.589Z,100215.25
2022-08-03T20:10:06.449Z,100214.56
2022-08-03T20:12:11.946Z,100216.94
2022-08-03T20:14:20.680Z,100217.34
2022-08-03T20:16:29.386Z,100215.84
2022-08-03T20:18:37.285Z,100221.44
2022-08-03T20:20:42.094Z,100215.56
2022-08-03T20:22:48.028Z,100216.81
2022-08-03T20:24:54.551Z,100218.63
2022-08-03T20:27:00.214Z,100218.44
2022-08-03T20:29:10.081Z,100221.75
2022-08-03T20:31:13.497Z,100221.94
2022-08-03T20:33:18.729Z,100221.22
2022-08-03T20:35:22.291Z,100225.47
2022-08-03T20:37:25.091Z,100224.63
2022-08-03T20:39:28.127Z,100214.97
2022-08-03T20:41:33.979Z,100208.03
2022-08-03T20:43:36.877Z,100220.44
2022-08-03T20:45:58.975Z,100217.03
2022-08-03T20:48:05.792Z,100216.84
2022-08-03T20:50:12.001Z,100215.44
2022-08-03T20:52:18.916Z,100215.03
2022-08-03T20:54:29.965Z,100216.19
2022-08-03T20:56:36.176Z,100212.94
2022-08-03T20:58:41.542Z,100209.44
2022-08-03T21:00:47.911Z,100208.78
2022-08-03T21:02:54.843Z,100208.91
2022-08-03T21:04:57.817Z,100208.06
2022-08-03T21:07:16.421Z,100207.31
2022-08-03T21:09:25.053Z,100201.41
2022-08-03T21:11:45.670Z,100200.75
2022-08-03T21:12:54.738Z,100177.06
2022-08-03T21:13:03.180Z,100222.50
2022-08-03T21:13:03.182Z,100218.44
2022-08-03T21:13:04.654Z,100174.88
2022-08-03T21:13:56.166Z,100202.44
2022-08-03T21:16:13.633Z,100194.84
2022-08-03T21:18:18.924Z,100196.88
2022-08-03T21:20:26.662Z,100202.88
2022-08-03T21:22:33.399Z,100200.09
2022-08-03T21:24:41.453Z,100194.09
2022-08-03T21:26:48.587Z,100192.59
2022-08-03T21:28:53.525Z,100197.69
2022-08-03T21:30:59.561Z,100191.88
2022-08-03T21:33:06.500Z,100192.44
2022-08-03T21:35:10.585Z,100198.09
2022-08-03T21:37:14.410Z,100189.28
2022-08-03T21:39:18.377Z,100194.81
2022-08-03T21:41:21.422Z,100196.69
2022-08-03T21:43:24.242Z,100192.84
2022-08-03T21:45:27.478Z,100187.63
2022-08-03T21:47:30.622Z,100198.41
2022-08-03T21:49:51.814Z,100198.41
2022-08-03T21:52:05.048Z,100201.38
2022-08-03T21:54:08.153Z,100193.63
2022-08-03T21:56:13.394Z,100199.19
2022-08-03T21:58:18.319Z,100190.63
2022-08-03T22:00:23.898Z,100195.59
2022-08-03T22:02:31.432Z,100198.47
2022-08-03T22:04:53.531Z,100198.06
2022-08-03T22:07:00.021Z,100189.28
2022-08-03T22:09:02.948Z,100184.91
2022-08-03T22:11:06.349Z,100192.06
2022-08-03T22:13:09.203Z,100191.19
2022-08-03T22:15:13.644Z,100191.19
2022-08-03T22:17:54.036Z,100199.41
2022-08-03T22:19:41.090Z,100199.50
2022-08-03T22:21:48.076Z,100199.59
2022-08-03T22:23:53.943Z,100200.00
2022-08-03T22:25:57.910Z,100199.91
2022-08-03T22:28:04.196Z,100201.94
2022-08-03T22:30:12.476Z,100200.09
2022-08-03T22:32:15.282Z,100206.50
2022-08-03T22:34:18.266Z,100206.69
2022-08-03T22:36:31.199Z,100200.50
2022-08-03T22:38:34.613Z,100203.38
2022-08-03T22:40:38.654Z,100198.16
2022-08-03T22:42:42.787Z,100208.28
2022-08-03T22:44:46.075Z,100207.53
2022-08-03T22:46:49.218Z,100210.13
2022-08-03T22:48:52.882Z,100207.53
2022-08-03T22:50:57.677Z,100208.78
2022-08-03T22:53:02.479Z,100203.34
2022-08-03T22:55:07.879Z,100202.53
2022-08-03T22:57:11.664Z,100203.53
2022-08-03T22:59:40.633Z,100206.28
2022-08-03T23:01:39.580Z,100205.50
2022-08-03T23:03:59.356Z,100207.13
2022-08-03T23:06:04.941Z,100202.28
2022-08-03T23:08:10.652Z,100207.22
2022-08-03T23:10:15.294Z,100212.38
2022-08-03T23:12:20.496Z,100214.09
2022-08-03T23:14:24.110Z,100215.03
2022-08-03T23:16:29.554Z,100218.75
2022-08-03T23:18:37.463Z,100217.91
2022-08-03T23:20:40.713Z,100224.38
2022-08-03T23:22:48.732Z,100230.59
2022-08-03T23:24:57.502Z,100229.41
2022-08-03T23:27:03.083Z,100231.75
2022-08-03T23:29:05.881Z,100225.78
2022-08-03T23:31:09.054Z,100228.84
2022-08-03T23:33:13.915Z,100221.69
2022-08-03T23:36:18.755Z,100231.50
2022-08-03T23:38:04.726Z,100228.78
2022-08-03T23:40:25.923Z,100224.81
2022-08-03T23:42:29.183Z,100226.53
2022-08-03T23:44:34.105Z,100230.84
2022-08-03T23:46:38.235Z,100229.13
2022-08-03T23:48:40.873Z,100225.34
2022-08-03T23:50:46.810Z,100224.41
2022-08-03T23:52:57.639Z,100221.56
2022-08-03T23:55:17.060Z,100221.75
2022-08-03T23:57:30.222Z,100216.66
2022-08-03T23:59:41.603Z,100213.69
